sensor_id;sensor_type;location;lat;lon;timestamp;pressure;altitude;pressure_sealevel;temperature;humidity
74708;BME280;63360;50.104;8.074;2024-03-25T00:01:55;96305.59;;;4.22;100.00
74708;BME280;63360;50.104;8.074;2024-03-25T00:04:20;96310.19;;;4.25;100.00
74708;BME280;63360;50.104;8.074;2024-03-25T00:06:49;96311.31;;;4.19;100.00
74708;BME280;63360;50.104;8.074;2024-03-25T00:09:14;96299.56;;;4.13;100.00
74708;BME280;63360;50.104;8.074;2024-03-25T00:11:41;96306.63;;;4.08;100.00
74708;BME280;63360;50.104;8.074;2024-03-25T00:14:07;96320.84;;;4.19;100.00
74708;BME280;63360;50.104;8.074;2024-03-25T00:16:33;96310.66;;;4.27;100.00
74708;BME280;63360;50.104;8.074;2024-03-25T00:18:59;96310.72;;;4.09;100.00
74708;BME280;63360;50.104;8.074;2024-03-25T00:21:24;96307.59;;;4.12;100.00
74708;BME280;63360;50.104;8.074;2024-03-25T00:23:50;96292.81;;;4.04;100.00
74708;BME280;63360;50.104;8.074;2024-03-25T00:26:15;96310.16;;;4.12;100.00
74708;BME280;63360;50.104;8.074;2024-03-25T00:28:41;96313.88;;;4.06;100.00
74708;BME280;63360;50.104;8.074;2024-03-25T00:31:06;96314.16;;;4.04;100.00
74708;BME280;63360;50.104;8.074;2024-03-25T00:33:32;96307.78;;;4.02;100.00
74708;BME280;63360;50.104;8.074;2024-03-25T00:35:58;96316.16;;;4.07;100.00
74708;BME280;63360;50.104;8.074;2024-03-25T00:38:24;96316.44;;;4.06;100.00
74708;BME280;63360;50.104;8.074;2024-03-25T00:40:50;96312.06;;;4.06;100.00
74708;BME280;63360;50.104;8.074;2024-03-25T00:43:15;96327.78;;;4.18;100.00
74708;BME280;63360;50.104;8.074;2024-03-25T00:45:41;96310.91;;;3.99;100.00
74708;BME280;63360;50.104;8.074;2024-03-25T00:48:07;96316.13;;;3.94;100.00
74708;BME280;63360;50.104;8.074;2024-03-25T00:50:32;96320.59;;;3.88;100.00
74708;BME280;63360;50.104;8.074;2024-03-25T00:52:58;96320.78;;;3.92;100.00
74708;BME280;63360;50.104;8.074;2024-03-25T00:55:23;96311.56;;;3.91;100.00
74708;BME280;63360;50.104;8.074;2024-03-25T00:57:50;96310.88;;;3.85;100.00
74708;BME280;63360;50.104;8.074;2024-03-25T01:00:16;96311.47;;;3.96;100.00
74708;BME280;63360;50.104;8.074;2024-03-25T01:02:43;96320.22;;;3.95;100.00
74708;BME280;63360;50.104;8.074;2024-03-25T01:05:08;96303.25;;;3.80;100.00
74708;BME280;63360;50.104;8.074;2024-03-25T01:07:34;96310.19;;;3.80;100.00
74708;BME280;63360;50.104;8.074;2024-03-25T01:10:00;96317.94;;;3.93;100.00
74708;BME280;63360;50.104;8.074;2024-03-25T01:12:26;96294.47;;;3.81;100.00
74708;BME280;63360;50.104;8.074;2024-03-25T01:14:52;96298.09;;;3.80;100.00
74708;BME280;63360;50.104;8.074;2024-03-25T01:17:18;96309.72;;;3.78;100.00
74708;BME280;63360;50.104;8.074;2024-03-25T01:19:43;96306.81;;;3.65;100.00
74708;BME280;63360;50.104;8.074;2024-03-25T01:22:09;96309.38;;;3.65;100.00
74708;BME280;63360;50.104;8.074;2024-03-25T01:24:34;96302.91;;;3.68;100.00
74708;BME280;63360;50.104;8.074;2024-03-25T01:27:00;96297.59;;;3.64;100.00
74708;BME280;63360;50.104;8.074;2024-03-25T01:29:26;96306.81;;;3.65;100.00
74708;BME280;63360;50.104;8.074;2024-03-25T01:31:51;96311.34;;;3.55;100.00
74708;BME280;63360;50.104;8.074;2024-03-25T01:34:17;96315.53;;;3.51;100.00
74708;BME280;63360;50.104;8.074;2024-03-25T01:36:42;96304.63;;;3.40;100.00
74708;BME280;63360;50.104;8.074;2024-03-25T01:39:08;96303.72;;;3.31;100.00
74708;BME280;63360;50.104;8.074;2024-03-25T01:41:34;96299.56;;;3.35;100.00
74708;BME280;63360;50.104;8.074;2024-03-25T01:44:00;96313.72;;;3.33;100.00
74708;BME280;63360;50.104;8.074;2024-03-25T01:46:27;96315.88;;;3.26;100.00
74708;BME280;63360;50.104;8.074;2024-03-25T01:48:53;96313.09;;;3.22;100.00
74708;BME280;63360;50.104;8.074;2024-03-25T01:51:20;96310.81;;;3.21;100.00
74708;BME280;63360;50.104;8.074;2024-03-25T01:53:47;96303.56;;;3.04;100.00
74708;BME280;63360;50.104;8.074;2024-03-25T01:56:14;96311.50;;;3.08;100.00
74708;BME280;63360;50.104;8.074;2024-03-25T01:58:40;96315.03;;;3.12;100.00
74708;BME280;63360;50.104;8.074;2024-03-25T02:01:06;96318.19;;;3.09;100.00
74708;BME280;63360;50.104;8.074;2024-03-25T02:03:34;96324.75;;;3.15;100.00
74708;BME280;63360;50.104;8.074;2024-03-25T02:06:02;96325.03;;;3.13;100.00
74708;BME280;63360;50.104;8.074;2024-03-25T02:08:30;96329.63;;;3.16;100.00
74708;BME280;63360;50.104;8.074;2024-03-25T02:10:56;96325.03;;;3.13;100.00
74708;BME280;63360;50.104;8.074;2024-03-25T02:13:23;96315.88;;;3.07;100.00
74708;BME280;63360;50.104;8.074;2024-03-25T02:15:49;96314.28;;;3.11;100.00
74708;BME280;63360;50.104;8.074;2024-03-25T02:18:17;96323.50;;;3.12;100.00
74708;BME280;63360;50.104;8.074;2024-03-25T02:20:43;96325.53;;;3.15;100.00
74708;BME280;63360;50.104;8.074;2024-03-25T02:23:09;96314.34;;;3.06;100.00
74708;BME280;63360;50.104;8.074;2024-03-25T02:25:37;96309.97;;;3.06;100.00
74708;BME280;63360;50.104;8.074;2024-03-25T02:28:03;96332.28;;;3.11;100.00
74708;BME280;63360;50.104;8.074;2024-03-25T02:30:29;96323.88;;;3.05;100.00
74708;BME280;63360;50.104;8.074;2024-03-25T02:32:54;96326.22;;;3.02;100.00
74708;BME280;63360;50.104;8.074;2024-03-25T02:35:21;96303.31;;;2.87;100.00
74708;BME280;63360;50.104;8.074;2024-03-25T02:37:47;96316.00;;;2.97;100.00
74708;BME280;63360;50.104;8.074;2024-03-25T02:40:15;96327.84;;;2.93;100.00
74708;BME280;63360;50.104;8.074;2024-03-25T02:42:41;96319.25;;;2.84;100.00
74708;BME280;63360;50.104;8.074;2024-03-25T02:45:07;96326.47;;;2.82;100.00
74708;BME280;63360;50.104;8.074;2024-03-25T02:47:33;96331.38;;;2.78;100.00
74708;BME280;63360;50.104;8.074;2024-03-25T02:49:58;96317.63;;;2.69;100.00
74708;BME280;63360;50.104;8.074;2024-03-25T02:52:24;96318.69;;;2.68;100.00
74708;BME280;63360;50.104;8.074;2024-03-25T02:54:49;96331.22;;;2.70;100.00
74708;BME280;63360;50.104;8.074;2024-03-25T02:57:15;96316.59;;;2.70;100.00
74708;BME280;63360;50.104;8.074;2024-03-25T02:59:40;96329.44;;;2.70;100.00
74708;BME280;63360;50.104;8.074;2024-03-25T03:02:06;96334.78;;;2.74;100.00
74708;BME280;63360;50.104;8.074;2024-03-25T03:04:31;96335.75;;;2.78;100.00
74708;BME280;63360;50.104;8.074;2024-03-25T03:06:57;96327.81;;;2.74;100.00
74708;BME280;63360;50.104;8.074;2024-03-25T03:09:22;96325.78;;;2.76;100.00
74708;BME280;63360;50.104;8.074;2024-03-25T03:11:48;96336.19;;;2.85;100.00
74708;BME280;63360;50.104;8.074;2024-03-25T03:14:14;96337.22;;;2.84;100.00
74708;BME280;63360;50.104;8.074;2024-03-25T03:16:39;96334.66;;;2.84;100.00
74708;BME280;63360;50.104;8.074;2024-03-25T03:19:05;96337.09;;;2.94;100.00
74708;BME280;63360;50.104;8.074;2024-03-25T03:21:30;96343.50;;;2.96;100.00
74708;BME280;63360;50.104;8.074;2024-03-25T03:23:56;96321.22;;;2.92;100.00
74708;BME280;63360;50.104;8.074;2024-03-25T03:26:22;96321.75;;;2.89;100.00
74708;BME280;63360;50.104;8.074;2024-03-25T03:28:55;96332.97;;;2.98;100.00
74708;BME280;63360;50.104;8.074;2024-03-25T03:31:21;96317.09;;;2.91;100.00
74708;BME280;63360;50.104;8.074;2024-03-25T03:33:50;96328.91;;;2.92;100.00
74708;BME280;63360;50.104;8.074;2024-03-25T03:36:17;96322.53;;;2.89;100.00
74708;BME280;63360;50.104;8.074;2024-03-25T03:38:43;96326.75;;;2.99;100.00
74708;BME280;63360;50.104;8.074;2024-03-25T03:41:09;96304.47;;;2.76;100.00
74708;BME280;63360;50.104;8.074;2024-03-25T03:43:34;96329.47;;;2.89;100.00
74708;BME280;63360;50.104;8.074;2024-03-25T03:46:00;96321.59;;;2.80;100.00
74708;BME280;63360;50.104;8.074;2024-03-25T03:48:25;96320.41;;;2.73;100.00
74708;BME280;63360;50.104;8.074;2024-03-25T03:50:51;96321.78;;;2.65;100.00
74708;BME280;63360;50.104;8.074;2024-03-25T03:53:17;96327.03;;;2.79;100.00
74708;BME280;63360;50.104;8.074;2024-03-25T03:55:42;96317.06;;;2.72;100.00
74708;BME280;63360;50.104;8.074;2024-03-25T03:58:08;96327.28;;;2.77;100.00
74708;BME280;63360;50.104;8.074;2024-03-25T04:00:34;96329.06;;;2.77;100.00
74708;BME280;63360;50.104;8.074;2024-03-25T04:03:01;96317.31;;;2.76;100.00
74708;BME280;63360;50.104;8.074;2024-03-25T04:05:30;96323.28;;;2.90;100.00
74708;BME280;63360;50.104;8.074;2024-03-25T04:07:56;96322.16;;;2.77;100.00
74708;BME280;63360;50.104;8.074;2024-03-25T04:10:22;96326.59;;;2.90;100.00
74708;BME280;63360;50.104;8.074;2024-03-25T04:12:48;96330.16;;;2.94;100.00
74708;BME280;63360;50.104;8.074;2024-03-25T04:15:13;96323.22;;;2.95;100.00
74708;BME280;63360;50.104;8.074;2024-03-25T04:17:46;96327.91;;;2.88;100.00
74708;BME280;63360;50.104;8.074;2024-03-25T04:20:12;96314.22;;;2.97;100.00
74708;BME280;63360;50.104;8.074;2024-03-25T04:22:45;96319.59;;;2.96;100.00
74708;BME280;63360;50.104;8.074;2024-03-25T04:25:12;96305.34;;;2.85;100.00
74708;BME280;63360;50.104;8.074;2024-03-25T04:27:41;96316.06;;;2.92;100.00
74708;BME280;63360;50.104;8.074;2024-03-25T04:30:07;96313.56;;;2.87;100.00
74708;BME280;63360;50.104;8.074;2024-03-25T04:32:34;96308.69;;;2.85;100.00
74708;BME280;63360;50.104;8.074;2024-03-25T04:35:00;96311.25;;;2.85;100.00
74708;BME280;63360;50.104;8.074;2024-03-25T04:37:26;96316.47;;;2.80;100.00
74708;BME280;63360;50.104;8.074;2024-03-25T04:39:53;96297.44;;;2.63;100.00
74708;BME280;63360;50.104;8.074;2024-03-25T04:42:19;96312.28;;;2.66;100.00
74708;BME280;63360;50.104;8.074;2024-03-25T04:44:45;96305.31;;;2.66;100.00
74708;BME280;63360;50.104;8.074;2024-03-25T04:47:10;96309.63;;;2.52;100.00
74708;BME280;63360;50.104;8.074;2024-03-25T04:49:36;96305.25;;;2.53;100.00
74708;BME280;63360;50.104;8.074;2024-03-25T04:52:04;96314.03;;;2.47;100.00
74708;BME280;63360;50.104;8.074;2024-03-25T04:54:29;96314.63;;;2.38;100.00
74708;BME280;63360;50.104;8.074;2024-03-25T04:56:55;96322.59;;;2.37;100.00
74708;BME280;63360;50.104;8.074;2024-03-25T04:59:21;96314.34;;;2.16;100.00
74708;BME280;63360;50.104;8.074;2024-03-25T05:01:46;96312.59;;;2.12;100.00
74708;BME280;63360;50.104;8.074;2024-03-25T05:04:12;96313.41;;;2.07;100.00
74708;BME280;63360;50.104;8.074;2024-03-25T05:06:37;96325.28;;;1.98;100.00
74708;BME280;63360;50.104;8.074;2024-03-25T05:09:03;96328.66;;;1.94;100.00
74708;BME280;63360;50.104;8.074;2024-03-25T05:11:28;96321.31;;;1.82;100.00
74708;BME280;63360;50.104;8.074;2024-03-25T05:13:53;96331.84;;;1.80;100.00
74708;BME280;63360;50.104;8.074;2024-03-25T05:16:19;96336.47;;;1.78;100.00
74708;BME280;63360;50.104;8.074;2024-03-25T05:18:44;96336.56;;;1.68;100.00
74708;BME280;63360;50.104;8.074;2024-03-25T05:21:10;96332.28;;;1.59;100.00
74708;BME280;63360;50.104;8.074;2024-03-25T05:23:35;96336.91;;;1.57;100.00
74708;BME280;63360;50.104;8.074;2024-03-25T05:26:01;96352.28;;;1.52;100.00
74708;BME280;63360;50.104;8.074;2024-03-25T05:28:26;96347.69;;;1.54;100.00
74708;BME280;63360;50.104;8.074;2024-03-25T05:30:52;96339.31;;;1.43;100.00
74708;BME280;63360;50.104;8.074;2024-03-25T05:33:17;96334.94;;;1.44;100.00
74708;BME280;63360;50.104;8.074;2024-03-25T05:35:43;96339.84;;;1.40;100.00
74708;BME280;63360;50.104;8.074;2024-03-25T05:38:08;96349.03;;;1.41;100.00
74708;BME280;63360;50.104;8.074;2024-03-25T05:40:34;96349.06;;;1.36;100.00
74708;BME280;63360;50.104;8.074;2024-03-25T05:42:59;96348.25;;;1.46;100.00
74708;BME280;63360;50.104;8.074;2024-03-25T05:45:24;96346.22;;;1.43;100.00
74708;BME280;63360;50.104;8.074;2024-03-25T05:47:50;96347.75;;;1.39;100.00
74708;BME280;63360;50.104;8.074;2024-03-25T05:50:16;96343.91;;;1.41;100.00
74708;BME280;63360;50.104;8.074;2024-03-25T05:52:42;96353.88;;;1.48;100.00
74708;BME280;63360;50.104;8.074;2024-03-25T05:55:07;96364.41;;;1.46;100.00
74708;BME280;63360;50.104;8.074;2024-03-25T05:57:35;96347.22;;;1.47;100.00
74708;BME280;63360;50.104;8.074;2024-03-25T06:00:01;96361.28;;;1.54;100.00
74708;BME280;63360;50.104;8.074;2024-03-25T06:02:26;96345.94;;;1.44;100.00
74708;BME280;63360;50.104;8.074;2024-03-25T06:04:52;96357.94;;;1.54;100.00
74708;BME280;63360;50.104;8.074;2024-03-25T06:07:17;96363.22;;;1.67;100.00
74708;BME280;63360;50.104;8.074;2024-03-25T06:09:43;96342.16;;;1.70;100.00
74708;BME280;63360;50.104;8.074;2024-03-25T06:12:09;96345.97;;;1.78;100.00
74708;BME280;63360;50.104;8.074;2024-03-25T06:14:35;96362.44;;;2.01;100.00
74708;BME280;63360;50.104;8.074;2024-03-25T06:17:00;96355.75;;;2.05;100.00
74708;BME280;63360;50.104;8.074;2024-03-25T06:19:26;96353.88;;;2.10;100.00
74708;BME280;63360;50.104;8.074;2024-03-25T06:21:51;96351.78;;;2.17;100.00
74708;BME280;63360;50.104;8.074;2024-03-25T06:24:17;96350.88;;;2.03;100.00
74708;BME280;63360;50.104;8.074;2024-03-25T06:26:42;96355.19;;;2.08;100.00
74708;BME280;63360;50.104;8.074;2024-03-25T06:29:08;96361.78;;;2.19;100.00
74708;BME280;63360;50.104;8.074;2024-03-25T06:31:33;96358.19;;;2.20;100.00
74708;BME280;63360;50.104;8.074;2024-03-25T06:34:17;96370.88;;;2.35;100.00
74708;BME280;63360;50.104;8.074;2024-03-25T06:36:44;96380.94;;;2.55;100.00
74708;BME280;63360;50.104;8.074;2024-03-25T06:39:10;96377.50;;;2.65;100.00
74708;BME280;63360;50.104;8.074;2024-03-25T06:41:36;96375.28;;;2.82;100.00
74708;BME280;63360;50.104;8.074;2024-03-25T06:44:01;96383.03;;;3.00;100.00
74708;BME280;63360;50.104;8.074;2024-03-25T06:46:27;96382.75;;;3.21;100.00
74708;BME280;63360;50.104;8.074;2024-03-25T06:48:52;96375.84;;;3.40;100.00
74708;BME280;63360;50.104;8.074;2024-03-25T06:51:18;96385.63;;;3.56;100.00
74708;BME280;63360;50.104;8.074;2024-03-25T06:53:44;96378.47;;;3.72;100.00
74708;BME280;63360;50.104;8.074;2024-03-25T06:56:09;96378.53;;;3.86;100.00
74708;BME280;63360;50.104;8.074;2024-03-25T06:58:35;96379.81;;;4.02;100.00
74708;BME280;63360;50.104;8.074;2024-03-25T07:01:05;96376.81;;;4.27;100.00
74708;BME280;63360;50.104;8.074;2024-03-25T07:03:31;96383.06;;;4.53;100.00
74708;BME280;63360;50.104;8.074;2024-03-25T07:05:56;96375.03;;;4.41;100.00
74708;BME280;63360;50.104;8.074;2024-03-25T07:08:22;96383.28;;;4.70;100.00
74708;BME280;63360;50.104;8.074;2024-03-25T07:10:48;96373.06;;;4.79;100.00
74708;BME280;63360;50.104;8.074;2024-03-25T07:13:13;96382.69;;;5.01;100.00
74708;BME280;63360;50.104;8.074;2024-03-25T07:15:39;96387.66;;;4.97;100.00
74708;BME280;63360;50.104;8.074;2024-03-25T07:18:05;96384.56;;;5.22;100.00
74708;BME280;63360;50.104;8.074;2024-03-25T07:20:31;96382.97;;;5.84;100.00
74708;BME280;63360;50.104;8.074;2024-03-25T07:22:57;96389.03;;;6.24;100.00
74708;BME280;63360;50.104;8.074;2024-03-25T07:25:23;96392.00;;;6.70;100.00
74708;BME280;63360;50.104;8.074;2024-03-25T07:27:49;96385.09;;;6.97;100.00
74708;BME280;63360;50.104;8.074;2024-03-25T07:30:15;96378.03;;;7.28;100.00
74708;BME280;63360;50.104;8.074;2024-03-25T07:32:41;96386.53;;;7.28;100.00
74708;BME280;63360;50.104;8.074;2024-03-25T07:35:07;96389.00;;;7.33;100.00
74708;BME280;63360;50.104;8.074;2024-03-25T07:37:35;96396.28;;;7.40;100.00
74708;BME280;63360;50.104;8.074;2024-03-25T07:40:00;96398.47;;;7.81;100.00
74708;BME280;63360;50.104;8.074;2024-03-25T07:42:26;96395.56;;;7.65;100.00
74708;BME280;63360;50.104;8.074;2024-03-25T07:44:51;96400.56;;;8.30;100.00
74708;BME280;63360;50.104;8.074;2024-03-25T07:47:18;96402.50;;;8.50;100.00
74708;BME280;63360;50.104;8.074;2024-03-25T07:49:44;96390.56;;;8.67;100.00
74708;BME280;63360;50.104;8.074;2024-03-25T07:52:09;96382.59;;;7.82;100.00
74708;BME280;63360;50.104;8.074;2024-03-25T07:54:35;96391.91;;;7.75;100.00
74708;BME280;63360;50.104;8.074;2024-03-25T07:57:03;96397.84;;;7.50;100.00
74708;BME280;63360;50.104;8.074;2024-03-25T07:59:29;96390.53;;;6.87;100.00
74708;BME280;63360;50.104;8.074;2024-03-25T08:01:54;96381.31;;;7.03;100.00
74708;BME280;63360;50.104;8.074;2024-03-25T08:04:20;96385.94;;;7.31;100.00
74708;BME280;63360;50.104;8.074;2024-03-25T08:06:46;96395.63;;;7.09;100.00
74708;BME280;63360;50.104;8.074;2024-03-25T08:09:11;96391.16;;;7.91;100.00
74708;BME280;63360;50.104;8.074;2024-03-25T08:11:39;96385.97;;;8.00;100.00
74708;BME280;63360;50.104;8.074;2024-03-25T08:14:04;96374.06;;;7.99;100.00
74708;BME280;63360;50.104;8.074;2024-03-25T08:16:30;96372.19;;;8.42;100.00
74708;BME280;63360;50.104;8.074;2024-03-25T08:18:55;96383.94;;;8.40;100.00
74708;BME280;63360;50.104;8.074;2024-03-25T08:21:22;96377.53;;;8.12;100.00
74708;BME280;63360;50.104;8.074;2024-03-25T08:23:48;96379.09;;;8.30;100.00
74708;BME280;63360;50.104;8.074;2024-03-25T08:26:13;96384.88;;;8.35;100.00
74708;BME280;63360;50.104;8.074;2024-03-25T08:28:39;96392.03;;;8.30;100.00
74708;BME280;63360;50.104;8.074;2024-03-25T08:31:04;96386.72;;;8.01;100.00
74708;BME280;63360;50.104;8.074;2024-03-25T08:33:30;96383.03;;;8.10;100.00
74708;BME280;63360;50.104;8.074;2024-03-25T08:35:56;96387.47;;;8.01;100.00
74708;BME280;63360;50.104;8.074;2024-03-25T08:38:21;96390.66;;;8.07;100.00
74708;BME280;63360;50.104;8.074;2024-03-25T08:40:47;96382.88;;;8.07;100.00
74708;BME280;63360;50.104;8.074;2024-03-25T08:43:12;96393.84;;;8.21;100.00
74708;BME280;63360;50.104;8.074;2024-03-25T08:45:38;96385.78;;;8.22;100.00
74708;BME280;63360;50.104;8.074;2024-03-25T08:48:04;96371.78;;;8.06;100.00
74708;BME280;63360;50.104;8.074;2024-03-25T08:50:29;96384.69;;;8.23;100.00
74708;BME280;63360;50.104;8.074;2024-03-25T08:52:55;96386.28;;;7.90;100.00
74708;BME280;63360;50.104;8.074;2024-03-25T08:55:20;96375.03;;;7.69;100.00
74708;BME280;63360;50.104;8.074;2024-03-25T08:57:45;96371.63;;;7.85;100.00
74708;BME280;63360;50.104;8.074;2024-03-25T09:00:11;96374.50;;;8.10;100.00
74708;BME280;63360;50.104;8.074;2024-03-25T09:02:37;96371.03;;;7.88;100.00
74708;BME280;63360;50.104;8.074;2024-03-25T09:05:03;96369.66;;;7.82;99.95
74708;BME280;63360;50.104;8.074;2024-03-25T09:07:32;96372.41;;;7.86;100.00
74708;BME280;63360;50.104;8.074;2024-03-25T09:09:58;96377.00;;;7.63;100.00
74708;BME280;63360;50.104;8.074;2024-03-25T09:12:42;96368.63;;;7.58;100.00
74708;BME280;63360;50.104;8.074;2024-03-25T09:15:07;96377.91;;;7.50;100.00
74708;BME280;63360;50.104;8.074;2024-03-25T09:17:35;96375.44;;;7.37;100.00
74708;BME280;63360;50.104;8.074;2024-03-25T09:20:01;96374.25;;;7.77;100.00
74708;BME280;63360;50.104;8.074;2024-03-25T09:22:29;96359.75;;;8.02;95.42
74708;BME280;63360;50.104;8.074;2024-03-25T09:24:55;96364.03;;;8.06;99.43
74708;BME280;63360;50.104;8.074;2024-03-25T09:27:20;96368.13;;;7.99;99.25
74708;BME280;63360;50.104;8.074;2024-03-25T09:29:45;96365.28;;;7.66;100.00
74708;BME280;63360;50.104;8.074;2024-03-25T09:32:11;96354.75;;;7.54;99.95
74708;BME280;63360;50.104;8.074;2024-03-25T09:34:36;96352.47;;;7.69;92.31
74708;BME280;63360;50.104;8.074;2024-03-25T09:37:02;96354.13;;;7.48;97.70
74708;BME280;63360;50.104;8.074;2024-03-25T09:39:27;96359.59;;;7.12;100.00
74708;BME280;63360;50.104;8.074;2024-03-25T09:41:55;96359.00;;;7.15;96.60
74708;BME280;63360;50.104;8.074;2024-03-25T09:44:24;96349.72;;;7.31;93.15
74708;BME280;63360;50.104;8.074;2024-03-25T09:46:51;96344.97;;;7.16;100.00
74708;BME280;63360;50.104;8.074;2024-03-25T09:49:16;96342.41;;;7.08;100.00
74708;BME280;63360;50.104;8.074;2024-03-25T09:51:43;96340.56;;;7.17;100.00
74708;BME280;63360;50.104;8.074;2024-03-25T09:54:09;96343.78;;;7.22;100.00
74708;BME280;63360;50.104;8.074;2024-03-25T09:56:36;96332.81;;;7.17;100.00
74708;BME280;63360;50.104;8.074;2024-03-25T09:59:02;96333.75;;;7.21;98.01
74708;BME280;63360;50.104;8.074;2024-03-25T10:01:28;96322.94;;;7.10;100.00
74708;BME280;63360;50.104;8.074;2024-03-25T10:03:54;96327.97;;;7.15;98.13
74708;BME280;63360;50.104;8.074;2024-03-25T10:06:19;96312.91;;;7.26;91.16
74708;BME280;63360;50.104;8.074;2024-03-25T10:08:45;96303.28;;;7.26;98.58
74708;BME280;63360;50.104;8.074;2024-03-25T10:11:11;96315.16;;;7.19;96.22
74708;BME280;63360;50.104;8.074;2024-03-25T10:13:36;96306.66;;;7.10;98.26
74708;BME280;63360;50.104;8.074;2024-03-25T10:16:03;96306.50;;;7.23;89.12
74708;BME280;63360;50.104;8.074;2024-03-25T10:18:28;96309.53;;;7.08;95.10
74708;BME280;63360;50.104;8.074;2024-03-25T10:20:54;96295.38;;;7.06;98.46
74708;BME280;63360;50.104;8.074;2024-03-25T10:23:22;96306.66;;;7.27;94.61
74708;BME280;63360;50.104;8.074;2024-03-25T10:25:48;96307.56;;;7.31;96.22
74708;BME280;63360;50.104;8.074;2024-03-25T10:28:14;96296.31;;;7.36;86.32
74708;BME280;63360;50.104;8.074;2024-03-25T10:30:40;96297.84;;;7.37;88.76
74708;BME280;63360;50.104;8.074;2024-03-25T10:33:07;96295.41;;;7.31;91.40
74708;BME280;63360;50.104;8.074;2024-03-25T10:35:34;96301.03;;;7.42;100.00
74708;BME280;63360;50.104;8.074;2024-03-25T10:38:02;96293.41;;;7.46;95.65
74708;BME280;63360;50.104;8.074;2024-03-25T10:40:30;96284.44;;;7.52;94.28
74708;BME280;63360;50.104;8.074;2024-03-25T10:43:04;96285.03;;;7.74;97.46
74708;BME280;63360;50.104;8.074;2024-03-25T10:45:34;96293.69;;;7.87;95.16
74708;BME280;63360;50.104;8.074;2024-03-25T10:48:03;96287.75;;;7.78;99.16
74708;BME280;63360;50.104;8.074;2024-03-25T10:50:31;96292.91;;;7.86;95.44
74708;BME280;63360;50.104;8.074;2024-03-25T10:52:58;96277.53;;;7.81;91.35
74708;BME280;63360;50.104;8.074;2024-03-25T10:55:25;96271.91;;;7.79;94.89
74708;BME280;63360;50.104;8.074;2024-03-25T10:57:52;96265.66;;;7.89;94.45
74708;BME280;63360;50.104;8.074;2024-03-25T11:00:22;96260.31;;;7.85;100.00
74708;BME280;63360;50.104;8.074;2024-03-25T11:02:47;96255.44;;;7.92;89.41
74708;BME280;63360;50.104;8.074;2024-03-25T11:05:13;96239.66;;;7.77;93.46
74708;BME280;63360;50.104;8.074;2024-03-25T11:07:40;96243.72;;;7.86;100.00
74708;BME280;63360;50.104;8.074;2024-03-25T11:10:07;96248.38;;;8.02;85.46
74708;BME280;63360;50.104;8.074;2024-03-25T11:12:35;96238.53;;;7.95;82.79
74708;BME280;63360;50.104;8.074;2024-03-25T11:15:05;96226.06;;;7.80;78.21
74708;BME280;63360;50.104;8.074;2024-03-25T11:17:32;96223.16;;;7.90;83.04
74708;BME280;63360;50.104;8.074;2024-03-25T11:20:09;96220.53;;;7.99;85.97
74708;BME280;63360;50.104;8.074;2024-03-25T11:22:36;96206.09;;;7.89;90.23
74708;BME280;63360;50.104;8.074;2024-03-25T11:25:06;96214.44;;;8.03;73.53
74708;BME280;63360;50.104;8.074;2024-03-25T11:27:36;96206.50;;;8.00;76.42
74708;BME280;63360;50.104;8.074;2024-03-25T11:30:05;96214.72;;;8.02;67.44
74708;BME280;63360;50.104;8.074;2024-03-25T11:32:51;96197.69;;;8.01;78.48
74708;BME280;63360;50.104;8.074;2024-03-25T11:35:17;96198.41;;;8.01;83.62
74708;BME280;63360;50.104;8.074;2024-03-25T11:37:44;96200.28;;;8.01;87.88
74708;BME280;63360;50.104;8.074;2024-03-25T11:40:10;96184.75;;;8.01;78.56
74708;BME280;63360;50.104;8.074;2024-03-25T11:42:39;96181.00;;;8.19;88.80
74708;BME280;63360;50.104;8.074;2024-03-25T11:45:07;96182.63;;;8.23;84.13
74708;BME280;63360;50.104;8.074;2024-03-25T11:47:40;96172.56;;;8.30;85.71
74708;BME280;63360;50.104;8.074;2024-03-25T11:50:10;96165.13;;;8.29;79.18
74708;BME280;63360;50.104;8.074;2024-03-25T11:52:36;96157.16;;;8.25;71.76
74708;BME280;63360;50.104;8.074;2024-03-25T11:55:02;96164.63;;;8.35;78.58
74708;BME280;63360;50.104;8.074;2024-03-25T11:57:28;96165.25;;;8.32;76.30
74708;BME280;63360;50.104;8.074;2024-03-25T11:59:54;96165.47;;;8.48;73.92
74708;BME280;63360;50.104;8.074;2024-03-25T12:02:19;96154.75;;;8.49;68.20
74708;BME280;63360;50.104;8.074;2024-03-25T12:04:45;96153.00;;;8.41;66.97
74708;BME280;63360;50.104;8.074;2024-03-25T12:07:14;96164.34;;;8.28;79.15
74708;BME280;63360;50.104;8.074;2024-03-25T12:09:40;96151.47;;;8.11;81.78
74708;BME280;63360;50.104;8.074;2024-03-25T12:12:25;96138.72;;;8.06;76.04
74708;BME280;63360;50.104;8.074;2024-03-25T12:14:51;96145.22;;;8.12;79.42
74708;BME280;63360;50.104;8.074;2024-03-25T12:17:18;96133.38;;;8.03;75.78
74708;BME280;63360;50.104;8.074;2024-03-25T12:19:44;96133.66;;;8.10;78.55
74708;BME280;63360;50.104;8.074;2024-03-25T12:22:10;96120.19;;;7.96;82.64
74708;BME280;63360;50.104;8.074;2024-03-25T12:24:35;96131.91;;;7.93;84.08
74708;BME280;63360;50.104;8.074;2024-03-25T12:27:01;96121.09;;;7.91;84.96
74708;BME280;63360;50.104;8.074;2024-03-25T12:29:28;96116.66;;;8.00;78.37
74708;BME280;63360;50.104;8.074;2024-03-25T12:31:55;96114.13;;;8.12;83.15
74708;BME280;63360;50.104;8.074;2024-03-25T12:34:21;96110.03;;;8.11;79.43
74708;BME280;63360;50.104;8.074;2024-03-25T12:36:48;96108.31;;;8.15;72.47
74708;BME280;63360;50.104;8.074;2024-03-25T12:39:19;96105.34;;;8.34;79.78
74708;BME280;63360;50.104;8.074;2024-03-25T12:41:45;96087.69;;;8.69;79.79
74708;BME280;63360;50.104;8.074;2024-03-25T12:44:13;96094.28;;;8.99;68.92
74708;BME280;63360;50.104;8.074;2024-03-25T12:46:39;96096.34;;;9.05;70.42
74708;BME280;63360;50.104;8.074;2024-03-25T12:49:05;96087.84;;;9.17;75.41
74708;BME280;63360;50.104;8.074;2024-03-25T12:51:31;96080.47;;;9.07;76.12
74708;BME280;63360;50.104;8.074;2024-03-25T12:53:57;96078.00;;;9.10;73.82
74708;BME280;63360;50.104;8.074;2024-03-25T12:56:24;96066.31;;;9.04;74.51
74708;BME280;63360;50.104;8.074;2024-03-25T12:58:49;96067.50;;;9.07;76.54